This is the latest recevied weather packets stored in our database for station/object HA5KDQ-10. If no packets are shown the sender has not sent any weather packets the latest 10 day(s).
| Time | Temp. | Humidity | Pressure | Rain* | Wind** | Luminosity | Snow |
|---|---|---|---|---|---|---|---|
| 1777846136 | 16.11° C | 29% | 963.1 hPa | - | - | - | - |
| 1777842536 | 16.67° C | 28% | 963.3 hPa | - | - | - | - |
| 1777838935 | 17.22° C | 27% | 963.2 hPa | - | - | - | - |
| 1777835334 | 17.78° C | 25% | 963.2 hPa | - | - | - | - |
| 1777831752 | 18.89° C | 24% | 962.9 hPa | - | - | - | - |
| 1777828151 | 20.56° C | 21% | 962.7 hPa | - | - | - | - |
| 1777824550 | 22.78° C | 19% | 962.9 hPa | - | - | - | - |
| 1777820949 | 23.89° C | 18% | 963 hPa | - | - | - | - |
| 1777817348 | 26.67° C | 16% | 963.5 hPa | - | - | - | - |
| 1777813747 | 27.78° C | 16% | 964.3 hPa | - | - | - | - |
| 1777810146 | 28.89° C | 16% | 964.8 hPa | - | - | - | - |
| 1777806545 | 27.78° C | 17% | 965.3 hPa | - | - | - | - |
| 1777802945 | 26.67° C | 18% | 965.7 hPa | - | - | - | - |
| 1777799344 | 28.89° C | 17% | 965.9 hPa | - | - | - | - |
| 1777795743 | 26.67° C | 18% | 965.9 hPa | - | - | - | - |
| 1777792142 | 25° C | 20% | 965.7 hPa | - | - | - | - |
| 1777788541 | 23.33° C | 22% | 965.5 hPa | - | - | - | - |
| 1777784940 | 20.56° C | 25% | 965.4 hPa | - | - | - | - |
| 1777781339 | 16.67° C | 30% | 965.1 hPa | - | - | - | - |
| 1777777739 | 11.11° C | 38% | 964.9 hPa | - | - | - | - |
| 1777774138 | 11.67° C | 37% | 964.8 hPa | - | - | - | - |
| 1777770537 | 13.33° C | 34% | 964.9 hPa | - | - | - | - |
| 1777766936 | 14.44° C | 32% | 964.9 hPa | - | - | - | - |
| 1777763335 | 16.11° C | 31% | 965 hPa | - | - | - | - |
| 1777759734 | 16.11° C | 31% | 965 hPa | - | - | - | - |
* Rain since midnight (hover to see other rain measurements)
** Current wind speed in m/s (hover to see current wind gust speed)